sensor_id;sensor_type;location;lat;lon;timestamp;P1;P2;P0
63305;PMS5003;50735;52.060;1.248;2023-03-01T00:02:13;13;12;
63305;PMS5003;50735;52.060;1.248;2023-03-01T00:04:39;10;9;
63305;PMS5003;50735;52.060;1.248;2023-03-01T00:07:06;13;9;
63305;PMS5003;50735;52.060;1.248;2023-03-01T00:09:33;9;9;
63305;PMS5003;50735;52.060;1.248;2023-03-01T00:11:59;10;8;
63305;PMS5003;50735;52.060;1.248;2023-03-01T00:14:26;13;9;
63305;PMS5003;50735;52.060;1.248;2023-03-01T00:16:53;9;8;
63305;PMS5003;50735;52.060;1.248;2023-03-01T00:19:19;12;8;
63305;PMS5003;50735;52.060;1.248;2023-03-01T00:21:47;11;7;
63305;PMS5003;50735;52.060;1.248;2023-03-01T00:24:13;10;8;
63305;PMS5003;50735;52.060;1.248;2023-03-01T00:26:41;8;7;
63305;PMS5003;50735;52.060;1.248;2023-03-01T00:29:08;7;6;
63305;PMS5003;50735;52.060;1.248;2023-03-01T00:31:34;6;6;
63305;PMS5003;50735;52.060;1.248;2023-03-01T00:34:03;10;5;
63305;PMS5003;50735;52.060;1.248;2023-03-01T00:36:31;8;8;
63305;PMS5003;50735;52.060;1.248;2023-03-01T00:39:00;10;8;
63305;PMS5003;50735;52.060;1.248;2023-03-01T00:41:28;7;6;
63305;PMS5003;50735;52.060;1.248;2023-03-01T00:43:55;8;7;
63305;PMS5003;50735;52.060;1.248;2023-03-01T00:46:24;7;7;
63305;PMS5003;50735;52.060;1.248;2023-03-01T00:48:52;6;6;
63305;PMS5003;50735;52.060;1.248;2023-03-01T00:51:21;6;6;
63305;PMS5003;50735;52.060;1.248;2023-03-01T00:53:50;7;6;
63305;PMS5003;50735;52.060;1.248;2023-03-01T00:56:17;7;6;
63305;PMS5003;50735;52.060;1.248;2023-03-01T00:58:44;8;7;
63305;PMS5003;50735;52.060;1.248;2023-03-01T01:01:12;5;5;
63305;PMS5003;50735;52.060;1.248;2023-03-01T01:03:41;9;8;
63305;PMS5003;50735;52.060;1.248;2023-03-01T01:06:12;6;5;
63305;PMS5003;50735;52.060;1.248;2023-03-01T01:08:39;4;4;
63305;PMS5003;50735;52.060;1.248;2023-03-01T01:11:08;5;5;
63305;PMS5003;50735;52.060;1.248;2023-03-01T01:13:35;5;5;
63305;PMS5003;50735;52.060;1.248;2023-03-01T01:16:03;5;5;
63305;PMS5003;50735;52.060;1.248;2023-03-01T01:18:30;9;7;
63305;PMS5003;50735;52.060;1.248;2023-03-01T01:20:57;8;6;
63305;PMS5003;50735;52.060;1.248;2023-03-01T01:23:24;6;4;
63305;PMS5003;50735;52.060;1.248;2023-03-01T01:25:50;5;5;
63305;PMS5003;50735;52.060;1.248;2023-03-01T01:28:17;4;4;
63305;PMS5003;50735;52.060;1.248;2023-03-01T01:30:44;6;4;
63305;PMS5003;50735;52.060;1.248;2023-03-01T01:33:10;5;5;
63305;PMS5003;50735;52.060;1.248;2023-03-01T01:35:37;6;5;
63305;PMS5003;50735;52.060;1.248;2023-03-01T01:38:04;4;4;
63305;PMS5003;50735;52.060;1.248;2023-03-01T01:40:31;4;4;
63305;PMS5003;50735;52.060;1.248;2023-03-01T01:42:58;3;2;
63305;PMS5003;50735;52.060;1.248;2023-03-01T01:45:26;4;4;
63305;PMS5003;50735;52.060;1.248;2023-03-01T01:47:58;5;5;
63305;PMS5003;50735;52.060;1.248;2023-03-01T01:50:28;3;3;
63305;PMS5003;50735;52.060;1.248;2023-03-01T01:52:56;2;2;
63305;PMS5003;50735;52.060;1.248;2023-03-01T01:55:24;4;4;
63305;PMS5003;50735;52.060;1.248;2023-03-01T01:57:54;3;3;
63305;PMS5003;50735;52.060;1.248;2023-03-01T02:00:25;2;2;
63305;PMS5003;50735;52.060;1.248;2023-03-01T02:02:55;2;2;
63305;PMS5003;50735;52.060;1.248;2023-03-01T02:05:26;4;2;
63305;PMS5003;50735;52.060;1.248;2023-03-01T02:08:05;3;3;
63305;PMS5003;50735;52.060;1.248;2023-03-01T02:10:33;4;3;
63305;PMS5003;50735;52.060;1.248;2023-03-01T02:13:02;2;2;
63305;PMS5003;50735;52.060;1.248;2023-03-01T02:15:31;3;3;
63305;PMS5003;50735;52.060;1.248;2023-03-01T02:17:59;4;2;
63305;PMS5003;50735;52.060;1.248;2023-03-01T02:20:29;1;1;
63305;PMS5003;50735;52.060;1.248;2023-03-01T02:23:01;2;2;
63305;PMS5003;50735;52.060;1.248;2023-03-01T02:25:31;2;2;
63305;PMS5003;50735;52.060;1.248;2023-03-01T02:28:03;7;4;
63305;PMS5003;50735;52.060;1.248;2023-03-01T02:30:37;3;3;
63305;PMS5003;50735;52.060;1.248;2023-03-01T02:33:04;3;3;
63305;PMS5003;50735;52.060;1.248;2023-03-01T02:35:32;8;3;
63305;PMS5003;50735;52.060;1.248;2023-03-01T02:38:02;2;2;
63305;PMS5003;50735;52.060;1.248;2023-03-01T02:40:33;2;2;
63305;PMS5003;50735;52.060;1.248;2023-03-01T02:43:02;4;3;
63305;PMS5003;50735;52.060;1.248;2023-03-01T02:45:33;2;2;
63305;PMS5003;50735;52.060;1.248;2023-03-01T02:48:00;2;2;
63305;PMS5003;50735;52.060;1.248;2023-03-01T02:50:38;3;2;
63305;PMS5003;50735;52.060;1.248;2023-03-01T02:53:19;2;2;
63305;PMS5003;50735;52.060;1.248;2023-03-01T02:55:53;6;3;
63305;PMS5003;50735;52.060;1.248;2023-03-01T02:58:20;3;3;
63305;PMS5003;50735;52.060;1.248;2023-03-01T03:00:47;4;2;
63305;PMS5003;50735;52.060;1.248;2023-03-01T03:03:14;5;3;
63305;PMS5003;50735;52.060;1.248;2023-03-01T03:05:43;5;3;
63305;PMS5003;50735;52.060;1.248;2023-03-01T03:08:10;3;2;
63305;PMS5003;50735;52.060;1.248;2023-03-01T03:10:38;3;3;
63305;PMS5003;50735;52.060;1.248;2023-03-01T03:13:07;2;2;
63305;PMS5003;50735;52.060;1.248;2023-03-01T03:15:35;3;3;
63305;PMS5003;50735;52.060;1.248;2023-03-01T03:18:02;2;2;
63305;PMS5003;50735;52.060;1.248;2023-03-01T03:20:31;2;1;
63305;PMS5003;50735;52.060;1.248;2023-03-01T03:22:58;2;2;
63305;PMS5003;50735;52.060;1.248;2023-03-01T03:25:26;3;3;
63305;PMS5003;50735;52.060;1.248;2023-03-01T03:27:55;3;3;
63305;PMS5003;50735;52.060;1.248;2023-03-01T03:30:23;2;2;
63305;PMS5003;50735;52.060;1.248;2023-03-01T03:32:52;3;3;
63305;PMS5003;50735;52.060;1.248;2023-03-01T03:35:19;2;2;
63305;PMS5003;50735;52.060;1.248;2023-03-01T03:37:47;2;2;
63305;PMS5003;50735;52.060;1.248;2023-03-01T03:40:15;8;4;
63305;PMS5003;50735;52.060;1.248;2023-03-01T03:42:42;3;3;
63305;PMS5003;50735;52.060;1.248;2023-03-01T03:45:09;1;1;
63305;PMS5003;50735;52.060;1.248;2023-03-01T03:47:35;4;2;
63305;PMS5003;50735;52.060;1.248;2023-03-01T03:50:02;2;2;
63305;PMS5003;50735;52.060;1.248;2023-03-01T03:52:29;4;2;
63305;PMS5003;50735;52.060;1.248;2023-03-01T03:54:55;3;3;
63305;PMS5003;50735;52.060;1.248;2023-03-01T03:57:22;4;2;
63305;PMS5003;50735;52.060;1.248;2023-03-01T03:59:49;4;3;
63305;PMS5003;50735;52.060;1.248;2023-03-01T04:02:15;6;3;
63305;PMS5003;50735;52.060;1.248;2023-03-01T04:04:42;4;3;
63305;PMS5003;50735;52.060;1.248;2023-03-01T04:07:09;4;3;
63305;PMS5003;50735;52.060;1.248;2023-03-01T04:09:35;3;3;
63305;PMS5003;50735;52.060;1.248;2023-03-01T04:12:02;4;4;
63305;PMS5003;50735;52.060;1.248;2023-03-01T04:14:29;4;2;
63305;PMS5003;50735;52.060;1.248;2023-03-01T04:16:56;4;2;
63305;PMS5003;50735;52.060;1.248;2023-03-01T04:19:22;3;3;
63305;PMS5003;50735;52.060;1.248;2023-03-01T04:21:49;3;3;
63305;PMS5003;50735;52.060;1.248;2023-03-01T04:24:16;3;3;
63305;PMS5003;50735;52.060;1.248;2023-03-01T04:26:43;2;2;
63305;PMS5003;50735;52.060;1.248;2023-03-01T04:29:10;2;2;
63305;PMS5003;50735;52.060;1.248;2023-03-01T04:31:36;2;2;
63305;PMS5003;50735;52.060;1.248;2023-03-01T04:34:03;3;1;
63305;PMS5003;50735;52.060;1.248;2023-03-01T04:36:30;3;1;
63305;PMS5003;50735;52.060;1.248;2023-03-01T04:38:56;1;1;
63305;PMS5003;50735;52.060;1.248;2023-03-01T04:41:23;1;1;
63305;PMS5003;50735;52.060;1.248;2023-03-01T04:43:51;5;1;
63305;PMS5003;50735;52.060;1.248;2023-03-01T04:46:18;4;2;
63305;PMS5003;50735;52.060;1.248;2023-03-01T04:48:46;1;1;
63305;PMS5003;50735;52.060;1.248;2023-03-01T04:51:13;1;1;
63305;PMS5003;50735;52.060;1.248;2023-03-01T04:53:40;3;3;
63305;PMS5003;50735;52.060;1.248;2023-03-01T04:56:09;1;1;
63305;PMS5003;50735;52.060;1.248;2023-03-01T04:58:36;3;2;
63305;PMS5003;50735;52.060;1.248;2023-03-01T05:01:07;3;2;
63305;PMS5003;50735;52.060;1.248;2023-03-01T05:03:36;2;2;
63305;PMS5003;50735;52.060;1.248;2023-03-01T05:06:02;3;3;
63305;PMS5003;50735;52.060;1.248;2023-03-01T05:08:30;4;3;
63305;PMS5003;50735;52.060;1.248;2023-03-01T05:10:57;3;3;
63305;PMS5003;50735;52.060;1.248;2023-03-01T05:13:23;5;3;
63305;PMS5003;50735;52.060;1.248;2023-03-01T05:15:54;2;2;
63305;PMS5003;50735;52.060;1.248;2023-03-01T05:18:22;2;2;
63305;PMS5003;50735;52.060;1.248;2023-03-01T05:20:49;2;2;
63305;PMS5003;50735;52.060;1.248;2023-03-01T05:23:15;4;3;
63305;PMS5003;50735;52.060;1.248;2023-03-01T05:25:42;3;3;
63305;PMS5003;50735;52.060;1.248;2023-03-01T05:28:10;3;3;
63305;PMS5003;50735;52.060;1.248;2023-03-01T05:30:38;6;3;
63305;PMS5003;50735;52.060;1.248;2023-03-01T05:33:06;3;1;
63305;PMS5003;50735;52.060;1.248;2023-03-01T05:35:34;3;2;
63305;PMS5003;50735;52.060;1.248;2023-03-01T05:38:01;5;3;
63305;PMS5003;50735;52.060;1.248;2023-03-01T05:40:27;4;2;
63305;PMS5003;50735;52.060;1.248;2023-03-01T05:42:55;4;3;
63305;PMS5003;50735;52.060;1.248;2023-03-01T05:45:23;4;2;
63305;PMS5003;50735;52.060;1.248;2023-03-01T05:47:51;2;2;
63305;PMS5003;50735;52.060;1.248;2023-03-01T05:50:19;2;2;
63305;PMS5003;50735;52.060;1.248;2023-03-01T05:52:47;1;1;
63305;PMS5003;50735;52.060;1.248;2023-03-01T05:55:16;2;2;
63305;PMS5003;50735;52.060;1.248;2023-03-01T05:57:44;4;2;
63305;PMS5003;50735;52.060;1.248;2023-03-01T06:00:11;2;2;
63305;PMS5003;50735;52.060;1.248;2023-03-01T06:02:40;2;2;
63305;PMS5003;50735;52.060;1.248;2023-03-01T06:05:08;4;4;
63305;PMS5003;50735;52.060;1.248;2023-03-01T06:07:37;3;2;
63305;PMS5003;50735;52.060;1.248;2023-03-01T06:10:04;2;2;
63305;PMS5003;50735;52.060;1.248;2023-03-01T06:12:33;2;2;
63305;PMS5003;50735;52.060;1.248;2023-03-01T06:15:02;2;2;
63305;PMS5003;50735;52.060;1.248;2023-03-01T06:17:30;2;2;
63305;PMS5003;50735;52.060;1.248;2023-03-01T06:19:58;7;2;
63305;PMS5003;50735;52.060;1.248;2023-03-01T06:22:25;3;3;
63305;PMS5003;50735;52.060;1.248;2023-03-01T06:24:51;2;2;
63305;PMS5003;50735;52.060;1.248;2023-03-01T06:27:18;2;2;
63305;PMS5003;50735;52.060;1.248;2023-03-01T06:29:45;2;2;
63305;PMS5003;50735;52.060;1.248;2023-03-01T06:32:12;5;5;
63305;PMS5003;50735;52.060;1.248;2023-03-01T06:34:38;3;3;
63305;PMS5003;50735;52.060;1.248;2023-03-01T06:37:05;3;3;
63305;PMS5003;50735;52.060;1.248;2023-03-01T06:39:32;2;2;
63305;PMS5003;50735;52.060;1.248;2023-03-01T06:41:59;3;3;
63305;PMS5003;50735;52.060;1.248;2023-03-01T06:44:26;1;1;
63305;PMS5003;50735;52.060;1.248;2023-03-01T06:46:54;1;1;
63305;PMS5003;50735;52.060;1.248;2023-03-01T06:49:20;4;3;
63305;PMS5003;50735;52.060;1.248;2023-03-01T06:51:48;3;3;
63305;PMS5003;50735;52.060;1.248;2023-03-01T06:54:15;4;2;
63305;PMS5003;50735;52.060;1.248;2023-03-01T06:56:42;3;3;
63305;PMS5003;50735;52.060;1.248;2023-03-01T06:59:08;5;4;
63305;PMS5003;50735;52.060;1.248;2023-03-01T07:01:35;3;3;
63305;PMS5003;50735;52.060;1.248;2023-03-01T07:04:02;1;1;
63305;PMS5003;50735;52.060;1.248;2023-03-01T07:06:28;3;2;
63305;PMS5003;50735;52.060;1.248;2023-03-01T07:08:55;4;2;
63305;PMS5003;50735;52.060;1.248;2023-03-01T07:11:22;2;2;
63305;PMS5003;50735;52.060;1.248;2023-03-01T07:13:49;2;2;
63305;PMS5003;50735;52.060;1.248;2023-03-01T07:16:15;2;2;
63305;PMS5003;50735;52.060;1.248;2023-03-01T07:18:42;6;4;
63305;PMS5003;50735;52.060;1.248;2023-03-01T07:21:09;4;2;
63305;PMS5003;50735;52.060;1.248;2023-03-01T07:23:38;3;3;
63305;PMS5003;50735;52.060;1.248;2023-03-01T07:26:05;2;2;
63305;PMS5003;50735;52.060;1.248;2023-03-01T07:28:32;3;2;
63305;PMS5003;50735;52.060;1.248;2023-03-01T07:31:00;3;3;
63305;PMS5003;50735;52.060;1.248;2023-03-01T07:33:27;4;4;
63305;PMS5003;50735;52.060;1.248;2023-03-01T07:35:55;4;1;
63305;PMS5003;50735;52.060;1.248;2023-03-01T07:38:22;2;2;
63305;PMS5003;50735;52.060;1.248;2023-03-01T07:40:49;4;2;
63305;PMS5003;50735;52.060;1.248;2023-03-01T07:43:16;7;7;
63305;PMS5003;50735;52.060;1.248;2023-03-01T07:45:43;3;3;
63305;PMS5003;50735;52.060;1.248;2023-03-01T07:48:10;6;4;
63305;PMS5003;50735;52.060;1.248;2023-03-01T07:50:37;5;4;
63305;PMS5003;50735;52.060;1.248;2023-03-01T07:53:03;4;3;
63305;PMS5003;50735;52.060;1.248;2023-03-01T07:55:30;5;3;
63305;PMS5003;50735;52.060;1.248;2023-03-01T07:57:57;10;7;
63305;PMS5003;50735;52.060;1.248;2023-03-01T08:00:25;3;3;
63305;PMS5003;50735;52.060;1.248;2023-03-01T08:02:52;9;9;
63305;PMS5003;50735;52.060;1.248;2023-03-01T08:05:19;3;3;
63305;PMS5003;50735;52.060;1.248;2023-03-01T08:07:46;5;5;
63305;PMS5003;50735;52.060;1.248;2023-03-01T08:10:12;3;3;
63305;PMS5003;50735;52.060;1.248;2023-03-01T08:12:39;6;4;
63305;PMS5003;50735;52.060;1.248;2023-03-01T08:15:06;4;2;
63305;PMS5003;50735;52.060;1.248;2023-03-01T08:17:34;5;4;
63305;PMS5003;50735;52.060;1.248;2023-03-01T08:20:01;4;4;
63305;PMS5003;50735;52.060;1.248;2023-03-01T08:22:29;4;4;
63305;PMS5003;50735;52.060;1.248;2023-03-01T08:24:55;7;7;
63305;PMS5003;50735;52.060;1.248;2023-03-01T08:27:22;6;4;
63305;PMS5003;50735;52.060;1.248;2023-03-01T08:29:49;7;5;
63305;PMS5003;50735;52.060;1.248;2023-03-01T08:32:15;3;3;
63305;PMS5003;50735;52.060;1.248;2023-03-01T08:34:42;3;3;
63305;PMS5003;50735;52.060;1.248;2023-03-01T08:37:12;7;5;
63305;PMS5003;50735;52.060;1.248;2023-03-01T08:39:39;5;5;
63305;PMS5003;50735;52.060;1.248;2023-03-01T08:42:06;2;2;
63305;PMS5003;50735;52.060;1.248;2023-03-01T08:44:33;6;6;
63305;PMS5003;50735;52.060;1.248;2023-03-01T08:46:59;3;3;
63305;PMS5003;50735;52.060;1.248;2023-03-01T08:49:26;4;4;
63305;PMS5003;50735;52.060;1.248;2023-03-01T08:51:53;3;3;
63305;PMS5003;50735;52.060;1.248;2023-03-01T08:54:20;2;2;
63305;PMS5003;50735;52.060;1.248;2023-03-01T08:56:48;5;4;
63305;PMS5003;50735;52.060;1.248;2023-03-01T08:59:16;5;4;
63305;PMS5003;50735;52.060;1.248;2023-03-01T09:01:43;3;3;
63305;PMS5003;50735;52.060;1.248;2023-03-01T09:04:10;4;4;
63305;PMS5003;50735;52.060;1.248;2023-03-01T09:06:37;2;2;
63305;PMS5003;50735;52.060;1.248;2023-03-01T09:09:05;2;2;
63305;PMS5003;50735;52.060;1.248;2023-03-01T09:11:32;2;2;
63305;PMS5003;50735;52.060;1.248;2023-03-01T09:13:59;2;2;
63305;PMS5003;50735;52.060;1.248;2023-03-01T09:16:25;2;2;
63305;PMS5003;50735;52.060;1.248;2023-03-01T09:18:53;2;2;
63305;PMS5003;50735;52.060;1.248;2023-03-01T09:21:21;2;1;
63305;PMS5003;50735;52.060;1.248;2023-03-01T09:23:50;3;2;
63305;PMS5003;50735;52.060;1.248;2023-03-01T09:26:17;3;2;
63305;PMS5003;50735;52.060;1.248;2023-03-01T09:28:46;2;2;
63305;PMS5003;50735;52.060;1.248;2023-03-01T09:31:14;2;2;
63305;PMS5003;50735;52.060;1.248;2023-03-01T09:33:45;2;2;
63305;PMS5003;50735;52.060;1.248;2023-03-01T09:36:14;1;1;
63305;PMS5003;50735;52.060;1.248;2023-03-01T09:38:43;2;2;
63305;PMS5003;50735;52.060;1.248;2023-03-01T09:41:10;4;3;
63305;PMS5003;50735;52.060;1.248;2023-03-01T09:43:50;2;2;
63305;PMS5003;50735;52.060;1.248;2023-03-01T09:46:20;3;3;
63305;PMS5003;50735;52.060;1.248;2023-03-01T09:48:50;3;2;
63305;PMS5003;50735;52.060;1.248;2023-03-01T09:51:22;4;4;
63305;PMS5003;50735;52.060;1.248;2023-03-01T09:53:53;4;4;
63305;PMS5003;50735;52.060;1.248;2023-03-01T09:56:20;5;3;
63305;PMS5003;50735;52.060;1.248;2023-03-01T09:58:53;2;2;
63305;PMS5003;50735;52.060;1.248;2023-03-01T10:01:27;2;2;
63305;PMS5003;50735;52.060;1.248;2023-03-01T10:04:02;2;2;
63305;PMS5003;50735;52.060;1.248;2023-03-01T10:06:39;4;2;
63305;PMS5003;50735;52.060;1.248;2023-03-01T10:09:17;2;2;
63305;PMS5003;50735;52.060;1.248;2023-03-01T10:11:45;1;1;
63305;PMS5003;50735;52.060;1.248;2023-03-01T10:14:18;5;3;
63305;PMS5003;50735;52.060;1.248;2023-03-01T10:16:56;2;2;
63305;PMS5003;50735;52.060;1.248;2023-03-01T10:19:27;1;1;
63305;PMS5003;50735;52.060;1.248;2023-03-01T10:21:57;2;2;
63305;PMS5003;50735;52.060;1.248;2023-03-01T10:24:30;2;2;
63305;PMS5003;50735;52.060;1.248;2023-03-01T10:27:01;1;1;
63305;PMS5003;50735;52.060;1.248;2023-03-01T10:29:34;2;2;
63305;PMS5003;50735;52.060;1.248;2023-03-01T10:32:06;3;2;
63305;PMS5003;50735;52.060;1.248;2023-03-01T10:34:33;2;2;
63305;PMS5003;50735;52.060;1.248;2023-03-01T10:37:09;1;1;
63305;PMS5003;50735;52.060;1.248;2023-03-01T10:39:54;6;3;
63305;PMS5003;50735;52.060;1.248;2023-03-01T10:42:25;5;4;
63305;PMS5003;50735;52.060;1.248;2023-03-01T10:44:54;2;2;
63305;PMS5003;50735;52.060;1.248;2023-03-01T10:47:21;3;3;
63305;PMS5003;50735;52.060;1.248;2023-03-01T10:49:52;7;5;
63305;PMS5003;50735;52.060;1.248;2023-03-01T10:52:22;6;6;
63305;PMS5003;50735;52.060;1.248;2023-03-01T10:54:51;7;4;
63305;PMS5003;50735;52.060;1.248;2023-03-01T10:57:25;6;4;
63305;PMS5003;50735;52.060;1.248;2023-03-01T11:00:01;6;4;
63305;PMS5003;50735;52.060;1.248;2023-03-01T11:02:40;3;3;
63305;PMS5003;50735;52.060;1.248;2023-03-01T11:05:13;3;3;
63305;PMS5003;50735;52.060;1.248;2023-03-01T11:07:47;2;2;
63305;PMS5003;50735;52.060;1.248;2023-03-01T11:10:16;2;2;
63305;PMS5003;50735;52.060;1.248;2023-03-01T11:12:44;2;2;
63305;PMS5003;50735;52.060;1.248;2023-03-01T11:15:19;2;2;
63305;PMS5003;50735;52.060;1.248;2023-03-01T11:17:48;4;2;
63305;PMS5003;50735;52.060;1.248;2023-03-01T11:20:18;3;1;
63305;PMS5003;50735;52.060;1.248;2023-03-01T11:22:52;1;1;
63305;PMS5003;50735;52.060;1.248;2023-03-01T11:25:23;5;3;
63305;PMS5003;50735;52.060;1.248;2023-03-01T11:27:51;1;1;
63305;PMS5003;50735;52.060;1.248;2023-03-01T11:30:20;2;0;
63305;PMS5003;50735;52.060;1.248;2023-03-01T11:32:52;2;2;
63305;PMS5003;50735;52.060;1.248;2023-03-01T11:35:29;1;1;
63305;PMS5003;50735;52.060;1.248;2023-03-01T11:37:59;2;1;
63305;PMS5003;50735;52.060;1.248;2023-03-01T11:40:37;3;2;
63305;PMS5003;50735;52.060;1.248;2023-03-01T11:43:12;3;1;
63305;PMS5003;50735;52.060;1.248;2023-03-01T11:45:50;1;1;
63305;PMS5003;50735;52.060;1.248;2023-03-01T11:48:52;1;1;
63305;PMS5003;50735;52.060;1.248;2023-03-01T11:51:37;3;2;
63305;PMS5003;50735;52.060;1.248;2023-03-01T11:54:13;1;1;
63305;PMS5003;50735;52.060;1.248;2023-03-01T11:56:51;1;1;
63305;PMS5003;50735;52.060;1.248;2023-03-01T11:59:29;3;1;
63305;PMS5003;50735;52.060;1.248;2023-03-01T12:02:15;3;1;
63305;PMS5003;50735;52.060;1.248;2023-03-01T12:05:05;2;2;
63305;PMS5003;50735;52.060;1.248;2023-03-01T12:07:46;2;2;
63305;PMS5003;50735;52.060;1.248;2023-03-01T12:10:21;2;2;
63305;PMS5003;50735;52.060;1.248;2023-03-01T12:13:04;6;2;
63305;PMS5003;50735;52.060;1.248;2023-03-01T12:15:46;3;2;
63305;PMS5003;50735;52.060;1.248;2023-03-01T12:18:28;3;3;
63305;PMS5003;50735;52.060;1.248;2023-03-01T12:21:06;4;3;
63305;PMS5003;50735;52.060;1.248;2023-03-01T12:23:45;3;3;
63305;PMS5003;50735;52.060;1.248;2023-03-01T12:26:26;3;3;
63305;PMS5003;50735;52.060;1.248;2023-03-01T12:29:02;2;2;
63305;PMS5003;50735;52.060;1.248;2023-03-01T12:31:46;4;4;
63305;PMS5003;50735;52.060;1.248;2023-03-01T12:34:31;2;2;
63305;PMS5003;50735;52.060;1.248;2023-03-01T12:37:27;7;3;
63305;PMS5003;50735;52.060;1.248;2023-03-01T12:40:09;3;3;
63305;PMS5003;50735;52.060;1.248;2023-03-01T12:42:48;3;3;
63305;PMS5003;50735;52.060;1.248;2023-03-01T12:45:30;5;4;
63305;PMS5003;50735;52.060;1.248;2023-03-01T12:48:12;3;2;
63305;PMS5003;50735;52.060;1.248;2023-03-01T12:50:52;1;1;
63305;PMS5003;50735;52.060;1.248;2023-03-01T12:53:22;3;1;
63305;PMS5003;50735;52.060;1.248;2023-03-01T12:55:51;1;1;
63305;PMS5003;50735;52.060;1.248;2023-03-01T12:58:23;2;2;
63305;PMS5003;50735;52.060;1.248;2023-03-01T13:01:01;2;1;
63305;PMS5003;50735;52.060;1.248;2023-03-01T13:03:38;0;0;
63305;PMS5003;50735;52.060;1.248;2023-03-01T13:06:24;1;1;
63305;PMS5003;50735;52.060;1.248;2023-03-01T13:08:58;2;2;
63305;PMS5003;50735;52.060;1.248;2023-03-01T13:11:30;0;0;
63305;PMS5003;50735;52.060;1.248;2023-03-01T13:14:32;1;1;
63305;PMS5003;50735;52.060;1.248;2023-03-01T13:17:02;2;2;
63305;PMS5003;50735;52.060;1.248;2023-03-01T13:19:29;1;1;
63305;PMS5003;50735;52.060;1.248;2023-03-01T13:21:56;0;0;
63305;PMS5003;50735;52.060;1.248;2023-03-01T13:24:23;1;1;
63305;PMS5003;50735;52.060;1.248;2023-03-01T13:27:24;1;1;
63305;PMS5003;50735;52.060;1.248;2023-03-01T13:29:51;1;1;
63305;PMS5003;50735;52.060;1.248;2023-03-01T13:32:20;1;1;
63305;PMS5003;50735;52.060;1.248;2023-03-01T13:34:52;3;2;
63305;PMS5003;50735;52.060;1.248;2023-03-01T13:37:22;1;1;
63305;PMS5003;50735;52.060;1.248;2023-03-01T13:39:52;7;2;
63305;PMS5003;50735;52.060;1.248;2023-03-01T13:42:37;1;1;
63305;PMS5003;50735;52.060;1.248;2023-03-01T13:45:16;2;1;
63305;PMS5003;50735;52.060;1.248;2023-03-01T13:47:47;3;1;
63305;PMS5003;50735;52.060;1.248;2023-03-01T13:50:19;1;1;
63305;PMS5003;50735;52.060;1.248;2023-03-01T13:52:49;3;2;
63305;PMS5003;50735;52.060;1.248;2023-03-01T13:55:20;0;0;
63305;PMS5003;50735;52.060;1.248;2023-03-01T13:57:53;0;0;
63305;PMS5003;50735;52.060;1.248;2023-03-01T14:00:25;2;0;
63305;PMS5003;50735;52.060;1.248;2023-03-01T14:03:01;1;1;
63305;PMS5003;50735;52.060;1.248;2023-03-01T14:05:30;1;1;
63305;PMS5003;50735;52.060;1.248;2023-03-01T14:07:57;2;2;
63305;PMS5003;50735;52.060;1.248;2023-03-01T14:10:25;1;1;
63305;PMS5003;50735;52.060;1.248;2023-03-01T14:13:01;1;1;
63305;PMS5003;50735;52.060;1.248;2023-03-01T14:15:44;3;1;
63305;PMS5003;50735;52.060;1.248;2023-03-01T14:18:20;2;2;
63305;PMS5003;50735;52.060;1.248;2023-03-01T14:20:53;3;1;
63305;PMS5003;50735;52.060;1.248;2023-03-01T14:23:21;1;1;
63305;PMS5003;50735;52.060;1.248;2023-03-01T14:25:50;2;2;
63305;PMS5003;50735;52.060;1.248;2023-03-01T14:28:20;3;3;
63305;PMS5003;50735;52.060;1.248;2023-03-01T14:30:50;5;1;
63305;PMS5003;50735;52.060;1.248;2023-03-01T14:33:20;1;1;
63305;PMS5003;50735;52.060;1.248;2023-03-01T14:35:54;3;1;
63305;PMS5003;50735;52.060;1.248;2023-03-01T14:38:23;0;0;
63305;PMS5003;50735;52.060;1.248;2023-03-01T14:40:57;0;0;
63305;PMS5003;50735;52.060;1.248;2023-03-01T14:43:27;0;0;
63305;PMS5003;50735;52.060;1.248;2023-03-01T14:45:57;0;0;
63305;PMS5003;50735;52.060;1.248;2023-03-01T14:48:24;2;2;
63305;PMS5003;50735;52.060;1.248;2023-03-01T14:50:54;0;0;
63305;PMS5003;50735;52.060;1.248;2023-03-01T14:53:23;1;1;
63305;PMS5003;50735;52.060;1.248;2023-03-01T14:55:54;2;1;
63305;PMS5003;50735;52.060;1.248;2023-03-01T14:58:23;2;1;
63305;PMS5003;50735;52.060;1.248;2023-03-01T15:00:52;0;0;
63305;PMS5003;50735;52.060;1.248;2023-03-01T15:03:26;0;0;
63305;PMS5003;50735;52.060;1.248;2023-03-01T15:05:57;1;1;
63305;PMS5003;50735;52.060;1.248;2023-03-01T15:08:25;0;0;
63305;PMS5003;50735;52.060;1.248;2023-03-01T15:10:57;3;2;
63305;PMS5003;50735;52.060;1.248;2023-03-01T15:13:28;1;1;
63305;PMS5003;50735;52.060;1.248;2023-03-01T15:16:01;2;1;
63305;PMS5003;50735;52.060;1.248;2023-03-01T15:18:30;3;3;
63305;PMS5003;50735;52.060;1.248;2023-03-01T15:21:05;3;1;
63305;PMS5003;50735;52.060;1.248;2023-03-01T15:23:34;1;1;
63305;PMS5003;50735;52.060;1.248;2023-03-01T15:26:04;4;3;
63305;PMS5003;50735;52.060;1.248;2023-03-01T15:28:32;6;6;
63305;PMS5003;50735;52.060;1.248;2023-03-01T15:31:01;2;2;
63305;PMS5003;50735;52.060;1.248;2023-03-01T15:33:32;0;0;
63305;PMS5003;50735;52.060;1.248;2023-03-01T15:36:02;3;2;
63305;PMS5003;50735;52.060;1.248;2023-03-01T15:38:56;1;1;
63305;PMS5003;50735;52.060;1.248;2023-03-01T15:41:25;4;2;
63305;PMS5003;50735;52.060;1.248;2023-03-01T15:43:54;2;2;
63305;PMS5003;50735;52.060;1.248;2023-03-01T15:46:22;4;2;
63305;PMS5003;50735;52.060;1.248;2023-03-01T15:48:53;3;3;
63305;PMS5003;50735;52.060;1.248;2023-03-01T15:51:23;2;1;
63305;PMS5003;50735;52.060;1.248;2023-03-01T15:53:55;3;1;
63305;PMS5003;50735;52.060;1.248;2023-03-01T15:56:25;3;2;
63305;PMS5003;50735;52.060;1.248;2023-03-01T15:58:51;2;2;
63305;PMS5003;50735;52.060;1.248;2023-03-01T16:01:18;2;2;
63305;PMS5003;50735;52.060;1.248;2023-03-01T16:03:45;1;1;
63305;PMS5003;50735;52.060;1.248;2023-03-01T16:06:11;1;1;
63305;PMS5003;50735;52.060;1.248;2023-03-01T16:08:38;5;3;
63305;PMS5003;50735;52.060;1.248;2023-03-01T16:11:05;0;0;
63305;PMS5003;50735;52.060;1.248;2023-03-01T16:13:39;2;1;
63305;PMS5003;50735;52.060;1.248;2023-03-01T16:16:06;3;2;
63305;PMS5003;50735;52.060;1.248;2023-03-01T16:18:34;1;1;
63305;PMS5003;50735;52.060;1.248;2023-03-01T16:21:00;3;1;
63305;PMS5003;50735;52.060;1.248;2023-03-01T16:23:27;1;1;
63305;PMS5003;50735;52.060;1.248;2023-03-01T16:25:54;3;2;
63305;PMS5003;50735;52.060;1.248;2023-03-01T16:28:25;2;2;
63305;PMS5003;50735;52.060;1.248;2023-03-01T16:30:51;5;2;
63305;PMS5003;50735;52.060;1.248;2023-03-01T16:33:18;2;2;
63305;PMS5003;50735;52.060;1.248;2023-03-01T16:35:45;6;3;
63305;PMS5003;50735;52.060;1.248;2023-03-01T16:38:11;5;2;
63305;PMS5003;50735;52.060;1.248;2023-03-01T16:40:38;1;1;
63305;PMS5003;50735;52.060;1.248;2023-03-01T16:43:05;3;1;
63305;PMS5003;50735;52.060;1.248;2023-03-01T16:45:32;1;1;
63305;PMS5003;50735;52.060;1.248;2023-03-01T16:48:01;3;3;
63305;PMS5003;50735;52.060;1.248;2023-03-01T16:50:27;2;2;
63305;PMS5003;50735;52.060;1.248;2023-03-01T16:52:54;1;1;
63305;PMS5003;50735;52.060;1.248;2023-03-01T16:55:21;2;1;
63305;PMS5003;50735;52.060;1.248;2023-03-01T16:57:48;5;5;
63305;PMS5003;50735;52.060;1.248;2023-03-01T17:00:15;1;1;
63305;PMS5003;50735;52.060;1.248;2023-03-01T17:02:42;1;1;
63305;PMS5003;50735;52.060;1.248;2023-03-01T17:05:09;1;1;
63305;PMS5003;50735;52.060;1.248;2023-03-01T17:07:37;1;1;
63305;PMS5003;50735;52.060;1.248;2023-03-01T17:10:05;1;1;